createdAt,value
2019-06-27T00:00:23.111Z,0.00
2019-06-27T00:01:23.108Z,0.00
2019-06-27T00:02:23.111Z,0.00
2019-06-27T00:03:23.111Z,0.00
2019-06-27T00:04:23.106Z,0.00
2019-06-27T00:05:23.108Z,0.00
2019-06-27T00:06:23.103Z,0.00
2019-06-27T00:07:23.100Z,0.00
2019-06-27T00:08:23.099Z,0.00
2019-06-27T00:09:23.165Z,0.00
2019-06-27T00:10:23.102Z,0.00
2019-06-27T00:11:23.100Z,0.00
2019-06-27T00:12:23.103Z,0.00
2019-06-27T00:13:23.101Z,0.00
2019-06-27T00:14:23.097Z,0.00
2019-06-27T00:15:23.096Z,0.00
2019-06-27T00:16:23.100Z,0.00
2019-06-27T00:17:23.097Z,0.00
2019-06-27T00:18:23.093Z,0.00
2019-06-27T00:19:23.092Z,0.00
2019-06-27T00:20:23.148Z,0.00
2019-06-27T00:21:23.088Z,0.00
2019-06-27T00:22:23.104Z,0.00
2019-06-27T00:23:23.089Z,0.00
2019-06-27T00:24:23.088Z,0.00
2019-06-27T00:25:23.086Z,0.00
2019-06-27T00:26:23.084Z,0.00
2019-06-27T00:27:23.081Z,0.00
2019-06-27T00:28:23.083Z,0.00
2019-06-27T00:29:23.080Z,0.00
2019-06-27T00:30:23.111Z,0.00
2019-06-27T00:31:23.088Z,0.00
2019-06-27T00:32:23.080Z,0.00
2019-06-27T00:33:23.078Z,0.00
2019-06-27T00:34:23.078Z,0.00
2019-06-27T00:35:23.079Z,0.00
2019-06-27T00:36:23.074Z,0.00
2019-06-27T00:37:23.075Z,0.00
2019-06-27T00:38:23.067Z,0.00
2019-06-27T00:39:23.065Z,0.00
2019-06-27T00:40:23.067Z,0.00
2019-06-27T00:41:23.067Z,0.00
2019-06-27T00:42:23.068Z,0.00
2019-06-27T00:43:23.067Z,0.00
2019-06-27T00:44:23.070Z,0.00
2019-06-27T00:45:23.061Z,0.00
2019-06-27T00:46:23.056Z,0.00
2019-06-27T00:47:23.055Z,0.00
2019-06-27T00:48:23.059Z,0.00
2019-06-27T00:49:23.055Z,0.00
2019-06-27T00:50:23.050Z,0.00
2019-06-27T00:51:23.050Z,0.00
2019-06-27T00:52:23.050Z,0.00
2019-06-27T00:53:23.048Z,0.00
2019-06-27T00:54:23.051Z,0.00
2019-06-27T00:55:23.059Z,0.00
2019-06-27T00:56:23.048Z,0.00
2019-06-27T00:57:23.051Z,0.00
2019-06-27T00:58:23.041Z,0.00
2019-06-27T00:59:23.039Z,0.00
2019-06-27T01:00:23.036Z,0.00
2019-06-27T01:01:23.032Z,0.00
2019-06-27T01:02:23.035Z,0.00
2019-06-27T01:03:23.033Z,0.00
2019-06-27T01:04:23.027Z,0.00
2019-06-27T01:05:23.024Z,0.00
2019-06-27T01:06:23.028Z,0.00
2019-06-27T01:07:23.033Z,0.00
2019-06-27T01:08:23.025Z,0.00
2019-06-27T01:09:23.025Z,0.00
2019-06-27T01:10:23.022Z,0.00
2019-06-27T01:11:23.018Z,0.00
2019-06-27T01:12:23.019Z,0.00
2019-06-27T01:13:23.016Z,0.00
2019-06-27T01:14:23.016Z,0.00
2019-06-27T01:15:23.015Z,0.00
2019-06-27T01:16:23.012Z,0.00
2019-06-27T01:17:23.011Z,0.00
2019-06-27T01:18:23.001Z,0.00
2019-06-27T01:19:23.002Z,0.00
2019-06-27T01:20:23.004Z,0.00
2019-06-27T01:21:23.001Z,0.00
2019-06-27T01:22:22.994Z,0.00
2019-06-27T01:23:22.993Z,0.00
2019-06-27T01:24:22.994Z,0.00
2019-06-27T01:25:22.994Z,0.00
2019-06-27T01:26:22.994Z,0.00
2019-06-27T01:27:30.062Z,0.00
2019-06-27T01:28:22.990Z,0.00
2019-06-27T01:29:23.040Z,0.00
2019-06-27T01:30:22.982Z,0.00
2019-06-27T01:31:22.979Z,0.00
2019-06-27T01:32:22.977Z,0.00
2019-06-27T01:33:22.973Z,0.00
2019-06-27T01:34:22.974Z,0.00
2019-06-27T01:35:22.974Z,0.00
2019-06-27T01:36:22.966Z,0.00
2019-06-27T01:37:22.963Z,0.00
2019-06-27T01:38:22.965Z,0.00
2019-06-27T01:39:22.963Z,0.00
2019-06-27T01:40:22.964Z,0.00
2019-06-27T01:41:22.962Z,0.00
2019-06-27T01:42:22.957Z,0.00
2019-06-27T01:43:22.952Z,0.00
2019-06-27T01:44:22.954Z,0.00
2019-06-27T01:45:22.951Z,0.00
2019-06-27T01:46:22.945Z,0.00
2019-06-27T01:47:22.944Z,0.00
2019-06-27T01:48:22.941Z,0.00
2019-06-27T01:49:22.935Z,0.00
2019-06-27T01:50:22.938Z,0.00
2019-06-27T01:51:22.936Z,0.00
2019-06-27T01:52:22.929Z,0.00
2019-06-27T01:53:22.931Z,0.00
2019-06-27T01:54:22.934Z,0.00
2019-06-27T01:55:22.925Z,0.00
2019-06-27T01:56:22.926Z,0.00
2019-06-27T01:57:22.924Z,0.00
2019-06-27T01:58:22.918Z,0.00
2019-06-27T01:59:22.915Z,0.00
2019-06-27T02:00:22.913Z,0.00
2019-06-27T02:01:22.909Z,0.00
2019-06-27T02:02:22.910Z,0.00
2019-06-27T02:03:22.908Z,0.00
2019-06-27T02:04:22.905Z,0.00
2019-06-27T02:05:22.902Z,0.00
2019-06-27T02:06:22.895Z,0.00
2019-06-27T02:07:22.891Z,0.00
2019-06-27T02:08:22.893Z,0.00
2019-06-27T02:09:22.894Z,0.00
2019-06-27T02:10:22.885Z,0.00
2019-06-27T02:11:22.881Z,0.00
2019-06-27T02:12:22.883Z,0.00
2019-06-27T02:13:22.884Z,0.00
2019-06-27T02:14:22.880Z,0.00
2019-06-27T02:15:22.885Z,0.00
2019-06-27T02:16:22.876Z,0.00
2019-06-27T02:17:22.877Z,0.00
2019-06-27T02:18:22.866Z,0.00
2019-06-27T02:19:22.865Z,0.00
2019-06-27T02:20:22.858Z,0.00
2019-06-27T02:21:22.855Z,0.00
2019-06-27T02:22:22.859Z,0.00
2019-06-27T02:23:22.856Z,0.00
2019-06-27T02:24:22.851Z,0.00
2019-06-27T02:25:22.846Z,0.00
2019-06-27T02:26:22.848Z,0.00
2019-06-27T02:27:22.845Z,0.00
2019-06-27T02:28:22.847Z,0.00
2019-06-27T02:29:22.841Z,0.00
2019-06-27T02:30:22.836Z,0.00
2019-06-27T02:31:22.843Z,0.00
2019-06-27T02:32:22.831Z,0.00
2019-06-27T02:33:22.837Z,0.00
2019-06-27T02:34:22.828Z,0.00
2019-06-27T02:35:22.828Z,0.00
2019-06-27T02:36:22.822Z,4.00
2019-06-27T02:37:22.821Z,4.00
2019-06-27T02:38:22.812Z,4.00
2019-06-27T02:39:22.808Z,0.00
2019-06-27T02:40:22.811Z,4.00
2019-06-27T02:41:22.813Z,4.00
2019-06-27T02:42:22.798Z,4.00
2019-06-27T02:43:22.797Z,4.00
2019-06-27T02:44:22.798Z,4.00
2019-06-27T02:45:22.805Z,4.00
2019-06-27T02:46:22.797Z,4.00
2019-06-27T02:47:22.793Z,8.00
2019-06-27T02:48:22.796Z,4.00
2019-06-27T02:49:22.786Z,4.00
2019-06-27T02:50:22.777Z,12.00
2019-06-27T02:51:22.776Z,8.00
2019-06-27T02:52:22.780Z,8.00
2019-06-27T02:53:22.776Z,12.00
2019-06-27T02:54:22.774Z,12.00
2019-06-27T02:55:22.774Z,12.00
2019-06-27T02:56:22.766Z,16.00
2019-06-27T02:57:22.761Z,20.00
2019-06-27T02:58:31.047Z,20.00
2019-06-27T02:59:22.760Z,20.00
2019-06-27T03:00:22.755Z,20.00
2019-06-27T03:01:22.760Z,24.00
2019-06-27T03:02:22.751Z,28.00
2019-06-27T03:03:22.743Z,36.00
2019-06-27T03:04:22.741Z,36.00
2019-06-27T03:05:22.737Z,44.00
2019-06-27T03:06:22.740Z,48.00
2019-06-27T03:07:22.736Z,52.00
2019-06-27T03:08:22.764Z,60.00
2019-06-27T03:09:22.741Z,64.00
2019-06-27T03:10:22.731Z,68.00
2019-06-27T03:11:22.722Z,72.00
2019-06-27T03:12:22.725Z,80.00
2019-06-27T03:13:22.725Z,88.00
2019-06-27T03:14:22.715Z,92.00
2019-06-27T03:15:22.724Z,100.00
2019-06-27T03:16:22.706Z,108.00
2019-06-27T03:17:22.706Z,116.00
2019-06-27T03:18:22.707Z,124.00
2019-06-27T03:19:22.705Z,136.00
2019-06-27T03:20:22.703Z,144.00
2019-06-27T03:21:22.722Z,160.00
2019-06-27T03:22:22.696Z,164.00
2019-06-27T03:23:22.745Z,172.00
2019-06-27T03:24:22.698Z,180.00
2019-06-27T03:25:22.685Z,200.00
2019-06-27T03:26:22.696Z,220.00
2019-06-27T03:27:22.686Z,248.00
2019-06-27T03:28:22.678Z,276.00
2019-06-27T03:29:22.679Z,308.00
2019-06-27T03:30:22.676Z,328.00
2019-06-27T03:31:22.676Z,336.00
2019-06-27T03:32:22.670Z,340.00
2019-06-27T03:33:22.670Z,336.00
2019-06-27T03:34:22.660Z,348.00
2019-06-27T03:35:22.660Z,356.00
2019-06-27T03:36:22.657Z,376.00
2019-06-27T03:37:22.652Z,388.00
2019-06-27T03:38:22.654Z,388.00
2019-06-27T03:39:22.651Z,392.00
2019-06-27T03:40:22.679Z,408.00
2019-06-27T03:41:22.656Z,420.00
2019-06-27T03:42:22.641Z,432.00
2019-06-27T03:43:22.642Z,468.00
2019-06-27T03:44:22.640Z,496.00
2019-06-27T03:45:22.639Z,496.00
2019-06-27T03:46:22.630Z,512.00
2019-06-27T03:47:22.627Z,544.00
2019-06-27T03:48:22.626Z,588.00
2019-06-27T03:49:22.623Z,572.00
2019-06-27T03:50:22.620Z,624.00
2019-06-27T03:51:22.619Z,668.00
2019-06-27T03:52:22.619Z,696.00
2019-06-27T03:53:22.617Z,684.00
2019-06-27T03:54:22.609Z,676.00
2019-06-27T03:55:22.607Z,708.00
2019-06-27T03:56:22.602Z,700.00
2019-06-27T03:57:22.598Z,696.00
2019-06-27T03:58:22.601Z,724.00
2019-06-27T03:59:22.599Z,740.00
2019-06-27T04:00:22.592Z,772.00
2019-06-27T04:01:22.587Z,792.00
2019-06-27T04:02:22.593Z,820.00
2019-06-27T04:03:22.597Z,844.00
2019-06-27T04:04:22.588Z,848.00
2019-06-27T04:05:22.585Z,876.00
2019-06-27T04:06:22.578Z,876.00
2019-06-27T04:07:22.577Z,896.00
2019-06-27T04:08:22.576Z,912.00
2019-06-27T04:09:22.572Z,916.00
2019-06-27T04:10:22.573Z,992.00
2019-06-27T04:11:22.593Z,1044.00
2019-06-27T04:12:22.574Z,1132.00
2019-06-27T04:13:22.563Z,1136.00
2019-06-27T04:14:22.560Z,1220.00
2019-06-27T04:15:22.562Z,1320.00
2019-06-27T04:16:22.558Z,1424.00
2019-06-27T04:17:22.553Z,1464.00
2019-06-27T04:18:22.552Z,1428.00
2019-06-27T04:19:22.545Z,1424.00
2019-06-27T04:20:22.546Z,1332.00
2019-06-27T04:21:22.542Z,1352.00
2019-06-27T04:22:22.545Z,1396.00
2019-06-27T04:23:22.568Z,1492.00
2019-06-27T04:24:22.539Z,1556.00
2019-06-27T04:25:22.581Z,1560.00
2019-06-27T04:26:22.534Z,1544.00
2019-06-27T04:27:22.529Z,1644.00
2019-06-27T04:28:22.528Z,1736.00
2019-06-27T04:29:33.570Z,1804.00
2019-06-27T04:30:22.529Z,1840.00
2019-06-27T04:31:22.520Z,1916.00
2019-06-27T04:32:22.534Z,1904.00
2019-06-27T04:33:22.536Z,2020.00
2019-06-27T04:34:22.513Z,2128.00
2019-06-27T04:35:22.511Z,2256.00
2019-06-27T04:36:22.512Z,2424.00
2019-06-27T04:37:22.529Z,2380.00
2019-06-27T04:38:22.502Z,2416.00
2019-06-27T04:39:22.504Z,2572.00
2019-06-27T04:40:22.497Z,2612.00
2019-06-27T04:41:22.495Z,2752.00
2019-06-27T04:42:22.498Z,2860.00
2019-06-27T04:43:22.517Z,3176.00
2019-06-27T04:44:22.494Z,3396.00
2019-06-27T04:45:22.491Z,3848.00
2019-06-27T04:46:22.486Z,4140.00
2019-06-27T04:47:22.481Z,3996.00
2019-06-27T04:48:22.483Z,4280.00
2019-06-27T04:49:22.482Z,4084.00
2019-06-27T04:50:22.489Z,4180.00
2019-06-27T04:51:22.473Z,4240.00
2019-06-27T04:52:22.477Z,4272.00
2019-06-27T04:53:22.470Z,4264.00
2019-06-27T04:54:22.475Z,4500.00
2019-06-27T04:55:22.471Z,4324.00
2019-06-27T04:56:22.472Z,4228.00
2019-06-27T04:57:22.464Z,4552.00
2019-06-27T04:58:22.457Z,4452.00
2019-06-27T04:59:22.454Z,4620.00
2019-06-27T05:00:22.459Z,4564.00
2019-06-27T05:01:22.453Z,4708.00
2019-06-27T05:02:22.455Z,4588.00
2019-06-27T05:03:22.453Z,4888.00
2019-06-27T05:04:22.448Z,5040.00
2019-06-27T05:05:22.446Z,4820.00
2019-06-27T05:06:22.448Z,4740.00
2019-06-27T05:07:22.446Z,5052.00
2019-06-27T05:08:22.442Z,5044.00
2019-06-27T05:09:22.441Z,4956.00
2019-06-27T05:10:22.437Z,4944.00
2019-06-27T05:11:22.433Z,4924.00
2019-06-27T05:12:22.435Z,6144.00
2019-06-27T05:13:22.431Z,5312.00
2019-06-27T05:14:22.433Z,5732.00
2019-06-27T05:15:22.432Z,5780.00
2019-06-27T05:16:22.432Z,5848.00
2019-06-27T05:17:22.429Z,5776.00
2019-06-27T05:18:22.423Z,6644.00
2019-06-27T05:19:22.429Z,7748.00
2019-06-27T05:20:22.438Z,8196.00
2019-06-27T05:21:22.422Z,9316.00
2019-06-27T05:22:22.416Z,11244.00
2019-06-27T05:23:22.422Z,13252.00
2019-06-27T05:24:22.414Z,13028.00
2019-06-27T05:25:22.409Z,21600.00
2019-06-27T05:26:22.414Z,23040.00
2019-06-27T05:27:22.411Z,23584.00
2019-06-27T05:28:22.416Z,19680.00
2019-06-27T05:29:22.410Z,22240.00
2019-06-27T05:30:22.404Z,15028.00
2019-06-27T05:31:22.406Z,12080.00
2019-06-27T05:32:22.408Z,12912.00
2019-06-27T05:33:22.414Z,10772.00
2019-06-27T05:34:22.411Z,18528.00
2019-06-27T05:35:22.411Z,21152.00
2019-06-27T05:36:22.412Z,18208.00
2019-06-27T05:37:22.408Z,15124.00
2019-06-27T05:38:22.413Z,23552.00
2019-06-27T05:39:22.414Z,9216.00
2019-06-27T05:40:22.421Z,22048.00
2019-06-27T05:41:22.414Z,20864.00
2019-06-27T05:42:22.410Z,24352.00
2019-06-27T05:43:22.411Z,25344.00
2019-06-27T05:44:22.414Z,25312.00
2019-06-27T05:45:22.413Z,26304.00
2019-06-27T05:46:22.422Z,24928.00
2019-06-27T05:47:22.422Z,24224.00
2019-06-27T05:48:22.432Z,26272.00
2019-06-27T05:49:22.429Z,25664.00
2019-06-27T05:50:22.428Z,27136.00
2019-06-27T05:51:22.445Z,26560.00
2019-06-27T05:52:22.466Z,27328.00
2019-06-27T05:53:22.440Z,20960.00
2019-06-27T05:54:22.441Z,16512.00
2019-06-27T05:55:22.445Z,28800.00
2019-06-27T05:56:22.444Z,29536.00
2019-06-27T05:57:22.448Z,16672.00
2019-06-27T05:58:22.456Z,29696.00
2019-06-27T05:59:22.462Z,28640.00
2019-06-27T06:00:28.992Z,19712.00
2019-06-27T06:01:22.477Z,12352.00
2019-06-27T06:02:22.468Z,30944.00
2019-06-27T06:03:22.475Z,14332.00
2019-06-27T06:04:24.089Z,15004.00
2019-06-27T06:05:22.488Z,31744.00
2019-06-27T06:06:22.512Z,31744.00
2019-06-27T06:07:22.500Z,26912.00
2019-06-27T06:08:22.501Z,21280.00
2019-06-27T06:09:22.506Z,30080.00
2019-06-27T06:10:22.522Z,24832.00
2019-06-27T06:11:22.561Z,30688.00
2019-06-27T06:12:22.538Z,32384.00
2019-06-27T06:13:22.529Z,33728.00
2019-06-27T06:14:22.532Z,33216.00
2019-06-27T06:15:22.540Z,27616.00
2019-06-27T06:16:22.542Z,35712.00
2019-06-27T06:17:22.546Z,35744.00
2019-06-27T06:18:22.560Z,35936.00
2019-06-27T06:19:22.564Z,32992.00
2019-06-27T06:20:22.573Z,32832.00
2019-06-27T06:21:22.582Z,35264.00
2019-06-27T06:22:22.580Z,35904.00
2019-06-27T06:23:22.601Z,37248.00
2019-06-27T06:24:22.598Z,25760.00
2019-06-27T06:25:22.605Z,30560.00
2019-06-27T06:26:22.613Z,17088.00
2019-06-27T06:27:22.616Z,18816.00
2019-06-27T06:28:22.620Z,38240.00
2019-06-27T06:29:22.626Z,30912.00
2019-06-27T06:30:22.639Z,19936.00
2019-06-27T06:31:22.647Z,34624.00
2019-06-27T06:32:22.681Z,29248.00
2019-06-27T06:33:22.657Z,18688.00
2019-06-27T06:34:22.662Z,27424.00
2019-06-27T06:35:22.669Z,16244.00
2019-06-27T06:36:22.678Z,18080.00
2019-06-27T06:37:22.683Z,16504.00
2019-06-27T06:38:22.695Z,34752.00
2019-06-27T06:39:22.701Z,33856.00
2019-06-27T06:40:22.701Z,35968.00
2019-06-27T06:41:22.710Z,27552.00
2019-06-27T06:42:22.716Z,35392.00
2019-06-27T06:43:22.750Z,34976.00
2019-06-27T06:44:22.730Z,36096.00
2019-06-27T06:45:22.732Z,36800.00
2019-06-27T06:46:22.735Z,35840.00
2019-06-27T06:47:22.746Z,36576.00
2019-06-27T06:48:22.748Z,36992.00
2019-06-27T06:49:22.753Z,38176.00
2019-06-27T06:50:23.632Z,38048.00
2019-06-27T06:51:22.770Z,38080.00
2019-06-27T06:52:22.782Z,39360.00
2019-06-27T06:53:22.787Z,41248.00
2019-06-27T06:54:22.798Z,43680.00
2019-06-27T06:55:22.808Z,47904.00
2019-06-27T06:56:22.810Z,53280.00
2019-06-27T06:57:22.817Z,60544.00
2019-06-27T06:58:22.820Z,63456.00
2019-06-27T06:59:22.829Z,60320.00
2019-06-27T07:00:22.835Z,55936.00
2019-06-27T07:01:22.848Z,55424.00
2019-06-27T07:02:22.852Z,57056.00
2019-06-27T07:03:22.864Z,58656.00
2019-06-27T07:04:22.873Z,59232.00
2019-06-27T07:05:22.974Z,59872.00
2019-06-27T07:06:22.885Z,61248.00
2019-06-27T07:07:22.895Z,63200.00
2019-06-27T07:08:22.899Z,65472.00
2019-06-27T07:09:22.912Z,65920.00
2019-06-27T07:10:22.924Z,70368.00
2019-06-27T07:11:22.934Z,72992.00
2019-06-27T07:12:22.941Z,77184.00
2019-06-27T07:13:22.950Z,81984.00
2019-06-27T07:14:22.963Z,82880.00
2019-06-27T07:15:22.975Z,89600.00
2019-06-27T07:16:22.994Z,86784.00
2019-06-27T07:17:22.998Z,85760.00
2019-06-27T07:18:23.004Z,84096.00
2019-06-27T07:19:23.017Z,84576.00
2019-06-27T07:20:23.026Z,89952.00
2019-06-27T07:21:23.037Z,90080.00
2019-06-27T07:22:23.051Z,88384.00
2019-06-27T07:23:23.064Z,91296.00
2019-06-27T07:24:23.085Z,94720.00
2019-06-27T07:25:23.084Z,95904.00
2019-06-27T07:26:23.092Z,91392.00
2019-06-27T07:27:23.103Z,87200.00
2019-06-27T07:28:23.119Z,86976.00
2019-06-27T07:29:23.129Z,91680.00
2019-06-27T07:30:23.141Z,88480.00
2019-06-27T07:31:23.150Z,83104.00
2019-06-27T07:32:23.165Z,80512.00
2019-06-27T07:33:23.175Z,82048.00
2019-06-27T07:34:23.196Z,82304.00
2019-06-27T07:35:23.204Z,81376.00
2019-06-27T07:36:23.221Z,78432.00
2019-06-27T07:37:23.232Z,80480.00
2019-06-27T07:38:23.234Z,83744.00
2019-06-27T07:39:23.252Z,81440.00
2019-06-27T07:40:23.256Z,76832.00
2019-06-27T07:41:23.267Z,76448.00
2019-06-27T07:42:23.302Z,77856.00
2019-06-27T07:43:23.317Z,70048.00
2019-06-27T07:44:23.302Z,62080.00
2019-06-27T07:45:23.315Z,49472.00
2019-06-27T07:46:25.511Z,51936.00
2019-06-27T07:47:23.343Z,58592.00
2019-06-27T07:48:23.358Z,57728.00
2019-06-27T07:49:23.381Z,56096.00
2019-06-27T07:50:23.378Z,58304.00
2019-06-27T07:51:23.389Z,57696.00
2019-06-27T07:52:23.399Z,59168.00
2019-06-27T07:53:23.413Z,57600.00
2019-06-27T07:54:23.496Z,55456.00
2019-06-27T07:55:23.442Z,55424.00
2019-06-27T07:56:23.447Z,56992.00
2019-06-27T07:57:23.458Z,56832.00
2019-06-27T07:58:23.467Z,57664.00
2019-06-27T07:59:23.485Z,62016.00
2019-06-27T08:00:23.495Z,68384.00
2019-06-27T08:01:34.367Z,71072.00
2019-06-27T08:02:23.516Z,67680.00
2019-06-27T08:03:23.533Z,65056.00
2019-06-27T08:04:23.545Z,62560.00
2019-06-27T08:05:23.556Z,59072.00
2019-06-27T08:06:23.569Z,58784.00
2019-06-27T08:07:23.588Z,58336.00
2019-06-27T08:08:23.597Z,59264.00
2019-06-27T08:09:23.607Z,61600.00
2019-06-27T08:10:23.616Z,62016.00
2019-06-27T08:11:23.641Z,61312.00
2019-06-27T08:12:23.644Z,61088.00
2019-06-27T08:13:23.655Z,61152.00
2019-06-27T08:14:23.680Z,62048.00
2019-06-27T08:15:23.686Z,61600.00
2019-06-27T08:16:23.695Z,59104.00
2019-06-27T08:17:23.710Z,60256.00
2019-06-27T08:18:23.723Z,60256.00
2019-06-27T08:19:23.739Z,61024.00
2019-06-27T08:20:23.750Z,64192.00
2019-06-27T08:21:23.762Z,65504.00
2019-06-27T08:22:23.774Z,67360.00
2019-06-27T08:23:37.181Z,62528.00
2019-06-27T08:24:23.828Z,58016.00
2019-06-27T08:25:23.813Z,59584.00
2019-06-27T08:26:23.832Z,62400.00
2019-06-27T08:27:23.848Z,65504.00
2019-06-27T08:28:23.863Z,65184.00
2019-06-27T08:29:23.875Z,66368.00
2019-06-27T08:30:23.887Z,67392.00
2019-06-27T08:31:23.901Z,64864.00
2019-06-27T08:32:23.922Z,64288.00
2019-06-27T08:33:23.928Z,68032.00
2019-06-27T08:34:23.939Z,76384.00
2019-06-27T08:35:23.955Z,82336.00
2019-06-27T08:36:23.973Z,80576.00
2019-06-27T08:37:23.979Z,70816.00
2019-06-27T08:38:23.998Z,64704.00
2019-06-27T08:39:24.015Z,61536.00
2019-06-27T08:40:24.026Z,58112.00
2019-06-27T08:41:24.038Z,56512.00
2019-06-27T08:42:24.068Z,55744.00
2019-06-27T08:43:24.072Z,55008.00
2019-06-27T08:44:24.081Z,53888.00
2019-06-27T08:45:24.094Z,53120.00
2019-06-27T08:46:24.113Z,52544.00
2019-06-27T08:47:24.129Z,53024.00
2019-06-27T08:48:24.139Z,52896.00
2019-06-27T08:49:24.168Z,57248.00
2019-06-27T08:50:24.177Z,57120.00
2019-06-27T08:51:24.190Z,57120.00
2019-06-27T08:52:24.200Z,57440.00
2019-06-27T08:53:24.272Z,57824.00
2019-06-27T08:54:24.226Z,57696.00
2019-06-27T08:55:24.241Z,57536.00
2019-06-27T08:56:24.257Z,57632.00
2019-06-27T08:57:24.272Z,57696.00
2019-06-27T08:58:24.292Z,57888.00
2019-06-27T08:59:24.306Z,58144.00
2019-06-27T09:00:24.327Z,58016.00
2019-06-27T09:01:24.341Z,57600.00
2019-06-27T09:02:24.355Z,58016.00
2019-06-27T09:03:24.369Z,58080.00
2019-06-27T09:04:24.393Z,58208.00
2019-06-27T09:05:24.407Z,58272.00
2019-06-27T09:06:24.417Z,58432.00
2019-06-27T09:07:24.444Z,58080.00
2019-06-27T09:08:24.451Z,58496.00
2019-06-27T09:09:24.476Z,58752.00
2019-06-27T09:10:24.486Z,59200.00
2019-06-27T09:11:24.506Z,59136.00
2019-06-27T09:12:24.523Z,59136.00
2019-06-27T09:13:24.548Z,58560.00
2019-06-27T09:14:24.554Z,59840.00
2019-06-27T09:15:24.571Z,59456.00
2019-06-27T09:16:24.606Z,59200.00
2019-06-27T09:17:24.603Z,58624.00
2019-06-27T09:18:24.624Z,58720.00
2019-06-27T09:19:24.643Z,58080.00
2019-06-27T09:20:24.669Z,57792.00
2019-06-27T09:21:24.673Z,58208.00
2019-06-27T09:22:24.694Z,57504.00
2019-06-27T09:23:24.727Z,57248.00
2019-06-27T09:24:24.754Z,57152.00
2019-06-27T09:25:24.749Z,56832.00
2019-06-27T09:26:24.777Z,57056.00
2019-06-27T09:27:24.781Z,56480.00
2019-06-27T09:28:24.798Z,56160.00
2019-06-27T09:29:24.817Z,55776.00
2019-06-27T09:30:24.892Z,55552.00
2019-06-27T09:31:24.856Z,55520.00
2019-06-27T09:32:26.353Z,55392.00
2019-06-27T09:33:24.894Z,55424.00
2019-06-27T09:34:24.899Z,55136.00
2019-06-27T09:35:24.917Z,54848.00
2019-06-27T09:36:24.937Z,54848.00
2019-06-27T09:37:24.952Z,54944.00
2019-06-27T09:38:24.967Z,55552.00
2019-06-27T09:39:27.093Z,56608.00
2019-06-27T09:40:25.003Z,60160.00
2019-06-27T09:41:25.046Z,65536.00
2019-06-27T09:42:25.050Z,73312.00
2019-06-27T09:43:25.053Z,79232.00
2019-06-27T09:44:25.071Z,78944.00
2019-06-27T09:45:25.087Z,77920.00
2019-06-27T09:46:25.101Z,84480.00
2019-06-27T09:47:25.118Z,91008.00
2019-06-27T09:48:25.129Z,92416.00
2019-06-27T09:49:25.152Z,95584.00
2019-06-27T09:50:25.168Z,96384.00
2019-06-27T09:51:25.181Z,99904.00
2019-06-27T09:52:25.195Z,106016.00
2019-06-27T09:53:25.211Z,105280.00
2019-06-27T09:54:25.230Z,106976.00
2019-06-27T09:55:25.246Z,106848.00
2019-06-27T09:56:25.266Z,106016.00
2019-06-27T09:57:25.282Z,104736.00
2019-06-27T09:58:25.293Z,104096.00
2019-06-27T09:59:25.310Z,100864.00
2019-06-27T10:00:25.362Z,100032.00
2019-06-27T10:01:25.419Z,105376.00
2019-06-27T10:02:40.514Z,110080.00
2019-06-27T10:03:25.379Z,108448.00
2019-06-27T10:04:25.394Z,104736.00
2019-06-27T10:05:25.409Z,104384.00
2019-06-27T10:06:26.391Z,103296.00
2019-06-27T10:07:25.440Z,102944.00
2019-06-27T10:08:25.462Z,108544.00
2019-06-27T10:09:25.479Z,111872.00
2019-06-27T10:10:25.495Z,108960.00
2019-06-27T10:11:25.506Z,106944.00
2019-06-27T10:12:40.941Z,108160.00
2019-06-27T10:13:25.557Z,108128.00
2019-06-27T10:14:25.562Z,108160.00
2019-06-27T10:15:25.579Z,106112.00
2019-06-27T10:16:25.592Z,104384.00
2019-06-27T10:17:25.613Z,100928.00
2019-06-27T10:18:25.628Z,102464.00
2019-06-27T10:19:25.646Z,102528.00
2019-06-27T10:20:25.667Z,102816.00
2019-06-27T10:21:25.682Z,102144.00
2019-06-27T10:22:25.695Z,99392.00
2019-06-27T10:23:25.750Z,98560.00
2019-06-27T10:24:25.733Z,98112.00
2019-06-27T10:25:25.750Z,96544.00
2019-06-27T10:26:25.763Z,97152.00
2019-06-27T10:27:25.780Z,97792.00
2019-06-27T10:28:25.795Z,97216.00
2019-06-27T10:29:25.821Z,97408.00
2019-06-27T10:30:25.837Z,94464.00
2019-06-27T10:31:25.850Z,90944.00
2019-06-27T10:32:25.865Z,89472.00
2019-06-27T10:33:25.880Z,89760.00
2019-06-27T10:34:25.892Z,89120.00
2019-06-27T10:35:25.910Z,87712.00
2019-06-27T10:36:25.931Z,88992.00
2019-06-27T10:37:25.947Z,85920.00
2019-06-27T10:38:25.968Z,87264.00
2019-06-27T10:39:25.994Z,85088.00
2019-06-27T10:40:26.002Z,85856.00
2019-06-27T10:41:26.013Z,86304.00
2019-06-27T10:42:26.034Z,83936.00
2019-06-27T10:43:26.053Z,82208.00
2019-06-27T10:44:26.066Z,83648.00
2019-06-27T10:45:26.082Z,85824.00
2019-06-27T10:46:26.118Z,87104.00
2019-06-27T10:47:26.117Z,85216.00
2019-06-27T10:48:26.129Z,84640.00
2019-06-27T10:49:26.144Z,84288.00
2019-06-27T10:50:26.172Z,84000.00
2019-06-27T10:51:26.184Z,84640.00
2019-06-27T10:52:26.204Z,83168.00
2019-06-27T10:53:26.219Z,82688.00
2019-06-27T10:54:26.233Z,84032.00
2019-06-27T10:55:26.250Z,85984.00
2019-06-27T10:56:26.277Z,84416.00
2019-06-27T10:57:26.283Z,80352.00
2019-06-27T10:58:26.297Z,82688.00
2019-06-27T10:59:26.314Z,86624.00
2019-06-27T11:00:26.327Z,86400.00
2019-06-27T11:01:26.389Z,86240.00
2019-06-27T11:02:26.365Z,90080.00
2019-06-27T11:03:26.378Z,89728.00
2019-06-27T11:04:26.395Z,90784.00
2019-06-27T11:05:26.410Z,88128.00
2019-06-27T11:06:26.430Z,86432.00
2019-06-27T11:07:26.436Z,83328.00
2019-06-27T11:08:26.455Z,83392.00
2019-06-27T11:09:26.473Z,91936.00
2019-06-27T11:10:26.488Z,93568.00
2019-06-27T11:11:26.506Z,93280.00
2019-06-27T11:12:26.516Z,91328.00
2019-06-27T11:13:26.542Z,90144.00
2019-06-27T11:14:26.551Z,91808.00
2019-06-27T11:15:26.581Z,95968.00
2019-06-27T11:16:26.605Z,96640.00
2019-06-27T11:17:26.597Z,96224.00
2019-06-27T11:18:26.607Z,99296.00
2019-06-27T11:19:26.621Z,101376.00
2019-06-27T11:20:26.648Z,103552.00
2019-06-27T11:21:26.657Z,101984.00
2019-06-27T11:22:26.681Z,88704.00
2019-06-27T11:23:26.693Z,44256.00
2019-06-27T11:24:26.706Z,10520.00
2019-06-27T11:25:26.716Z,8044.00
2019-06-27T11:26:26.730Z,7344.00
2019-06-27T11:27:27.542Z,7152.00
2019-06-27T11:28:26.761Z,7068.00
2019-06-27T11:29:26.775Z,6976.00
2019-06-27T11:30:26.781Z,6860.00
2019-06-27T11:31:26.800Z,6764.00
2019-06-27T11:32:26.812Z,6720.00
2019-06-27T11:33:32.442Z,6700.00
2019-06-27T11:34:26.834Z,6668.00
2019-06-27T11:35:26.846Z,6656.00
2019-06-27T11:36:26.856Z,6616.00
2019-06-27T11:37:26.864Z,6532.00
2019-06-27T11:38:26.869Z,6468.00
2019-06-27T11:39:26.879Z,6400.00
2019-06-27T11:40:26.887Z,6388.00
2019-06-27T11:41:26.892Z,6376.00
2019-06-27T11:42:29.796Z,6380.00
2019-06-27T11:43:26.914Z,6368.00
2019-06-27T11:44:26.918Z,6372.00
2019-06-27T11:45:26.952Z,6348.00
2019-06-27T11:46:26.939Z,6308.00
2019-06-27T11:47:26.945Z,6264.00
2019-06-27T11:48:26.954Z,6224.00
2019-06-27T11:49:26.961Z,6200.00
2019-06-27T11:50:26.967Z,6224.00
2019-06-27T11:51:26.975Z,6220.00
2019-06-27T11:52:26.977Z,6204.00
2019-06-27T11:53:26.983Z,6160.00
2019-06-27T11:54:26.995Z,6104.00
2019-06-27T11:55:27.002Z,6056.00
2019-06-27T11:56:27.002Z,6000.00
2019-06-27T11:57:27.010Z,5952.00
2019-06-27T11:58:27.012Z,5900.00
2019-06-27T11:59:27.018Z,5844.00
2019-06-27T12:00:27.028Z,5812.00
2019-06-27T12:01:27.036Z,5792.00
2019-06-27T12:02:27.031Z,5784.00
2019-06-27T12:03:27.042Z,5744.00
2019-06-27T12:04:27.046Z,5736.00
2019-06-27T12:05:27.077Z,5688.00
2019-06-27T12:06:27.060Z,5648.00
2019-06-27T12:07:27.071Z,5596.00
2019-06-27T12:08:27.070Z,5548.00
2019-06-27T12:09:27.076Z,5488.00
2019-06-27T12:10:27.077Z,5444.00
2019-06-27T12:11:27.081Z,5400.00
2019-06-27T12:12:27.085Z,5368.00